Time;durP1;ratioP1;P1;durP2;ratioP2;P2;SDS_P1;SDS_P2;PMS_P1;PMS_P2;Temp;Humidity;BMP_temperature;BMP_pressure;BME280_temperature;BME280_humidity;BME280_pressure;Samples;Min_cycle;Max_cycle;Signal;HPM_P1;HPM_P2
2023/08/31 00:00:22;;;;;;;22.85;16.27;;;10.40;99.90;;;;;;6129923;23;20550;-78
2023/08/31 00:02:48;;;;;;;28.50;17.30;;;10.50;99.90;;;;;;6105664;23;20045;-79
2023/08/31 00:05:14;;;;;;;43.40;21.08;;;10.60;99.90;;;;;;6129326;23;20010;-80
2023/08/31 00:07:40;;;;;;;68.25;30.73;;;10.60;99.90;;;;;;6106962;23;20333;-81
2023/08/31 00:10:09;;;;;;;49.80;26.30;;;10.80;99.90;;;;;;6131941;23;20322;-80
2023/08/31 00:12:36;;;;;;;62.65;31.27;;;10.90;99.90;;;;;;6106627;23;20020;-79
2023/08/31 00:15:04;;;;;;;38.50;25.10;;;11.00;99.90;;;;;;6105408;23;20346;-80
2023/08/31 00:17:30;;;;;;;33.00;22.75;;;11.00;99.90;;;;;;6132447;23;20014;-79
2023/08/31 00:19:55;;;;;;;26.75;20.73;;;11.10;99.90;;;;;;6132277;23;20028;-80
2023/08/31 00:22:21;;;;;;;33.55;22.05;;;11.20;99.90;;;;;;6107343;23;20013;-80
2023/08/31 00:24:46;;;;;;;37.65;22.50;;;11.20;99.90;;;;;;6106213;23;20006;-79
2023/08/31 00:27:14;;;;;;;20.83;17.65;;;11.20;99.90;;;;;;6107065;23;20454;-79
2023/08/31 00:29:40;;;;;;;24.23;16.13;;;11.20;99.90;;;;;;6108039;23;20024;-80
2023/08/31 00:32:06;;;;;;;22.10;16.63;;;11.20;99.90;;;;;;6130640;23;20053;-79
2023/08/31 00:34:32;;;;;;;31.77;19.23;;;11.20;99.90;;;;;;6107554;23;20017;-80
2023/08/31 00:36:57;;;;;;;42.95;22.20;;;11.20;99.90;;;;;;6107299;23;20321;-80
2023/08/31 00:39:23;;;;;;;34.83;18.65;;;11.20;99.90;;;;;;6106558;23;20342;-80
2023/08/31 00:41:50;;;;;;;20.25;15.20;;;11.20;99.90;;;;;;6107377;23;20400;-80
2023/08/31 00:44:15;;;;;;;26.05;14.60;;;11.20;99.90;;;;;;6107176;23;20025;-79
2023/08/31 00:46:41;;;;;;;19.42;12.60;;;11.30;99.90;;;;;;6107859;23;20037;-79
2023/08/31 00:49:08;;;;;;;18.38;11.30;;;11.30;99.90;;;;;;6132328;23;20014;-79
2023/08/31 00:51:34;;;;;;;20.02;9.93;;;11.30;99.90;;;;;;6108909;23;20017;-79
2023/08/31 00:54:00;;;;;;;21.67;10.80;;;11.30;99.90;;;;;;6107672;23;20064;-79
2023/08/31 00:56:26;;;;;;;9.65;5.03;;;11.20;99.90;;;;;;6131973;23;20048;-79
2023/08/31 00:58:52;;;;;;;20.75;10.30;;;11.20;99.90;;;;;;6132996;23;20013;-79
2023/08/31 01:01:38;;;;;;;11.80;7.95;;;11.20;99.90;;;;;;6134213;23;20048;-80
2023/08/31 01:04:16;;;;;;;24.00;15.38;;;11.20;99.90;;;;;;6133107;23;20072;-79
2023/08/31 01:07:11;;;;;;;17.67;12.35;;;11.20;99.90;;;;;;6108307;23;20045;-79
2023/08/31 01:10:05;;;;;;;25.67;16.77;;;11.20;99.90;;;;;;6085474;23;20013;-79
2023/08/31 01:12:36;;;;;;;65.00;27.08;;;11.20;99.90;;;;;;6110366;23;20427;-79
2023/08/31 01:15:10;;;;;;;36.28;22.05;;;11.10;99.90;;;;;;6133018;23;20033;-79
2023/08/31 01:17:45;;;;;;;21.08;17.10;;;11.20;99.90;;;;;;6109323;23;20075;-79
2023/08/31 01:20:15;;;;;;;23.50;17.70;;;11.20;99.90;;;;;;6133143;23;20165;-79
2023/08/31 01:23:05;;;;;;;33.67;21.52;;;11.20;99.90;;;;;;6107249;23;20032;-79
2023/08/31 01:25:32;;;;;;;20.10;17.38;;;11.20;99.90;;;;;;6108066;23;20009;-79
2023/08/31 01:27:59;;;;;;;21.17;18.27;;;11.10;99.90;;;;;;6131032;23;20041;-79
2023/08/31 01:30:25;;;;;;;23.65;19.40;;;11.10;99.90;;;;;;6133000;23;20018;-79
2023/08/31 01:32:50;;;;;;;24.48;18.25;;;11.10;99.90;;;;;;6133975;23;20512;-79
2023/08/31 01:35:18;;;;;;;29.73;19.63;;;11.10;99.90;;;;;;6110357;23;20101;-79
2023/08/31 01:37:59;;;;;;;21.23;17.00;;;11.00;99.90;;;;;;6135078;23;20017;-79
2023/08/31 01:40:35;;;;;;;60.20;26.10;;;11.00;99.90;;;;;;6133192;23;20017;-79
2023/08/31 01:43:05;;;;;;;15.90;14.20;;;11.00;99.90;;;;;;6105746;23;20426;-79
2023/08/31 01:45:33;;;;;;;22.42;13.57;;;11.00;99.90;;;;;;6129654;23;20010;-79
2023/08/31 01:47:59;;;;;;;14.75;12.88;;;10.90;99.90;;;;;;6105036;23;20010;-79
2023/08/31 01:50:25;;;;;;;32.55;18.13;;;10.90;99.90;;;;;;6106051;23;20029;-79
2023/08/31 01:52:53;;;;;;;16.23;13.05;;;10.80;99.90;;;;;;6130555;23;20017;-79
2023/08/31 01:55:18;;;;;;;18.67;14.80;;;10.80;99.90;;;;;;6127341;23;20013;-79
2023/08/31 01:57:44;;;;;;;20.73;14.13;;;10.80;99.90;;;;;;6129860;23;20319;-79
2023/08/31 02:00:10;;;;;;;12.50;11.23;;;10.70;99.90;;;;;;6129820;23;20108;-79
2023/08/31 02:02:36;;;;;;;11.73;10.50;;;10.80;99.90;;;;;;6105474;23;20068;-79
2023/08/31 02:05:04;;;;;;;11.00;9.27;;;10.70;99.90;;;;;;6103636;23;20384;-79
2023/08/31 02:07:30;;;;;;;13.35;10.70;;;10.70;99.90;;;;;;6128735;23;20049;-79
2023/08/31 02:09:55;;;;;;;8.60;7.80;;;10.60;99.90;;;;;;6106263;23;20017;-79
2023/08/31 02:12:21;;;;;;;14.13;10.85;;;10.60;99.90;;;;;;6105706;23;20014;-79
2023/08/31 02:14:47;;;;;;;7.05;6.35;;;10.60;99.90;;;;;;6104428;23;20013;-79
2023/08/31 02:17:12;;;;;;;9.98;8.90;;;10.60;99.90;;;;;;6106024;23;20064;-79
2023/08/31 02:19:38;;;;;;;10.70;8.77;;;10.50;99.90;;;;;;6105680;23;20010;-79
2023/08/31 02:22:04;;;;;;;7.03;6.32;;;10.50;99.90;;;;;;6106722;23;20092;-79
2023/08/31 02:24:29;;;;;;;8.27;6.93;;;10.40;99.90;;;;;;6129207;23;20020;-79
2023/08/31 02:26:56;;;;;;;7.85;6.40;;;10.40;99.90;;;;;;6105825;23;20013;-79
2023/08/31 02:29:21;;;;;;;9.10;6.88;;;10.40;99.90;;;;;;6106212;23;20342;-79
2023/08/31 02:31:47;;;;;;;13.40;8.23;;;10.40;99.90;;;;;;6130150;23;20021;-79
2023/08/31 02:34:13;;;;;;;9.82;7.72;;;10.40;99.90;;;;;;6129406;23;20014;-79
2023/08/31 02:36:38;;;;;;;19.88;11.80;;;10.30;99.90;;;;;;6130500;23;20346;-79
2023/08/31 02:39:04;;;;;;;11.57;9.80;;;10.30;99.90;;;;;;6130199;23;20049;-79
2023/08/31 02:41:29;;;;;;;11.55;9.80;;;10.30;99.90;;;;;;6105302;23;20148;-79
2023/08/31 02:43:55;;;;;;;12.25;10.00;;;10.30;99.90;;;;;;6104321;23;20009;-78
2023/08/31 02:46:22;;;;;;;13.40;9.82;;;10.30;99.90;;;;;;6129071;23;20454;-79
2023/08/31 02:48:48;;;;;;;13.27;10.77;;;10.30;99.90;;;;;;6130180;23;20457;-78
2023/08/31 02:51:13;;;;;;;8.90;7.60;;;10.30;99.90;;;;;;6130777;23;20072;-78
2023/08/31 02:53:39;;;;;;;11.68;10.45;;;10.20;99.90;;;;;;6129619;23;20458;-78
2023/08/31 02:56:04;;;;;;;18.83;16.65;;;10.20;99.90;;;;;;6104656;23;20322;-78
2023/08/31 02:58:31;;;;;;;42.33;23.25;;;10.20;99.90;;;;;;6105447;23;20322;-78
2023/08/31 03:01:15;;;;;;;14.43;13.13;;;10.20;99.90;;;;;;6105068;23;20049;-78
2023/08/31 03:03:42;;;;;;;18.33;16.38;;;10.20;99.90;;;;;;6105772;23;20013;-78
2023/08/31 03:06:09;;;;;;;25.27;21.70;;;10.20;99.90;;;;;;6128676;23;20013;-78
2023/08/31 03:08:36;;;;;;;22.75;20.50;;;10.20;99.90;;;;;;6104537;23;20014;-79
2023/08/31 03:11:02;;;;;;;19.17;17.50;;;10.20;99.90;;;;;;6130297;23;20041;-78
2023/08/31 03:13:28;;;;;;;24.52;22.15;;;10.20;99.90;;;;;;6106118;23;20124;-78
2023/08/31 03:15:54;;;;;;;24.70;22.50;;;10.20;99.90;;;;;;6129987;23;20017;-79
2023/08/31 03:18:19;;;;;;;44.10;32.83;;;10.20;99.90;;;;;;6131035;23;20017;-78
2023/08/31 03:20:45;;;;;;;46.22;34.30;;;10.20;99.90;;;;;;6106141;23;20020;-78
2023/08/31 03:23:11;;;;;;;33.10;29.55;;;10.20;99.90;;;;;;6104874;23;20323;-78
2023/08/31 03:25:37;;;;;;;25.95;23.65;;;10.20;99.90;;;;;;6104602;23;20045;-78
2023/08/31 03:28:03;;;;;;;28.25;25.70;;;10.20;99.90;;;;;;6104065;23;20669;-79
2023/08/31 03:30:28;;;;;;;25.95;23.45;;;10.10;99.90;;;;;;6128373;23;20064;-78
2023/08/31 03:32:54;;;;;;;43.05;28.48;;;10.20;99.90;;;;;;6127888;23;20014;-78
2023/08/31 03:35:21;;;;;;;32.00;28.58;;;10.20;99.90;;;;;;6103958;23;20018;-78
2023/08/31 03:37:49;;;;;;;35.53;30.35;;;10.20;99.90;;;;;;6104209;23;20339;-78
2023/08/31 03:40:15;;;;;;;34.83;27.92;;;10.20;99.90;;;;;;6129285;23;20021;-78
2023/08/31 03:42:40;;;;;;;24.85;22.58;;;10.20;99.90;;;;;;6104897;23;20013;-78
2023/08/31 03:45:06;;;;;;;63.08;36.05;;;10.10;99.90;;;;;;6103219;23;20018;-78
2023/08/31 03:47:32;;;;;;;22.77;20.58;;;10.20;99.90;;;;;;6127869;23;20037;-78
2023/08/31 03:49:57;;;;;;;46.53;29.20;;;10.20;99.90;;;;;;6104158;23;20122;-78
2023/08/31 03:52:23;;;;;;;37.00;27.08;;;10.20;99.90;;;;;;6104377;23;20525;-78
2023/08/31 03:54:49;;;;;;;26.52;23.80;;;10.10;99.90;;;;;;6102329;23;20416;-78
2023/08/31 03:57:15;;;;;;;31.00;23.05;;;10.20;99.90;;;;;;6103685;23;20092;-78
2023/08/31 03:59:40;;;;;;;32.50;23.27;;;10.20;99.90;;;;;;6129883;23;20100;-78
2023/08/31 04:02:06;;;;;;;23.73;21.20;;;10.20;99.90;;;;;;6129840;23;20346;-79
2023/08/31 04:04:32;;;;;;;17.75;16.08;;;10.20;99.90;;;;;;6105501;23;20013;-78
2023/08/31 04:06:58;;;;;;;21.67;17.15;;;10.30;99.90;;;;;;6105334;23;20020;-78
2023/08/31 04:09:23;;;;;;;31.33;23.05;;;10.30;99.90;;;;;;6105059;23;20057;-78
2023/08/31 04:11:49;;;;;;;25.42;20.17;;;10.30;99.90;;;;;;6129359;23;20017;-78
2023/08/31 04:14:14;;;;;;;34.08;23.50;;;10.30;99.90;;;;;;6129082;23;20018;-78
2023/08/31 04:16:40;;;;;;;33.30;21.92;;;10.30;99.90;;;;;;6129230;23;20014;-78
2023/08/31 04:19:06;;;;;;;26.63;21.02;;;10.30;99.90;;;;;;6105293;23;20021;-78
2023/08/31 04:21:31;;;;;;;29.50;21.60;;;10.30;99.90;;;;;;6129514;23;20018;-78
2023/08/31 04:23:59;;;;;;;24.02;20.48;;;10.30;99.90;;;;;;6129244;23;20450;-78
2023/08/31 04:26:25;;;;;;;27.42;24.63;;;10.40;99.90;;;;;;6129670;23;20056;-78
2023/08/31 04:28:50;;;;;;;29.50;25.08;;;10.40;99.90;;;;;;6105609;23;20010;-78
2023/08/31 04:31:16;;;;;;;39.30;29.52;;;10.50;99.90;;;;;;6104555;23;20021;-78
2023/08/31 04:33:41;;;;;;;35.78;30.45;;;10.50;99.90;;;;;;6104532;23;20010;-78
2023/08/31 04:36:07;;;;;;;62.63;40.83;;;10.60;99.90;;;;;;6104835;23;20068;-78
2023/08/31 04:38:34;;;;;;;44.58;34.72;;;10.60;99.90;;;;;;6129244;23;20480;-78
2023/08/31 04:41:00;;;;;;;50.88;36.08;;;10.60;99.90;;;;;;6128698;23;20014;-78
2023/08/31 04:43:26;;;;;;;40.78;35.13;;;10.70;99.90;;;;;;6104974;23;20065;-78
2023/08/31 04:45:53;;;;;;;40.80;34.25;;;10.70;99.90;;;;;;6129524;23;20006;-79
2023/08/31 04:48:19;;;;;;;56.83;41.10;;;10.80;99.90;;;;;;6129380;23;20014;-78
2023/08/31 04:50:44;;;;;;;34.30;29.58;;;10.80;99.90;;;;;;6129206;23;20017;-78
2023/08/31 04:53:10;;;;;;;53.60;37.67;;;10.80;99.90;;;;;;6104112;23;20115;-78
2023/08/31 04:55:35;;;;;;;62.28;39.33;;;10.80;99.90;;;;;;6129017;23;20017;-78
2023/08/31 04:58:01;;;;;;;49.25;37.25;;;10.80;99.90;;;;;;6128249;23;20092;-78
2023/08/31 05:00:27;;;;;;;47.53;36.42;;;10.80;99.90;;;;;;6103384;23;20013;-78
2023/08/31 05:02:52;;;;;;;57.13;36.85;;;10.80;99.90;;;;;;6127226;23;20009;-79
2023/08/31 05:05:20;;;;;;;60.45;38.30;;;10.80;99.90;;;;;;6129132;23;20021;-78
2023/08/31 05:07:46;;;;;;;71.82;40.58;;;10.80;99.90;;;;;;6104036;23;20564;-79
2023/08/31 05:10:12;;;;;;;53.10;36.38;;;10.90;99.90;;;;;;6130830;23;20018;-76
2023/08/31 05:12:37;;;;;;;48.97;34.22;;;10.90;99.90;;;;;;6128833;23;20028;-78
2023/08/31 05:15:04;;;;;;;45.03;34.60;;;10.90;99.90;;;;;;6126568;23;20342;-78
2023/08/31 05:17:30;;;;;;;77.85;41.42;;;10.90;99.90;;;;;;6127291;23;20018;-78
2023/08/31 05:19:55;;;;;;;43.88;33.88;;;10.90;99.90;;;;;;6104055;23;20017;-78
2023/08/31 05:22:22;;;;;;;66.60;40.13;;;10.90;99.90;;;;;;6129155;23;20093;-78
2023/08/31 05:24:48;;;;;;;52.10;35.92;;;11.00;99.90;;;;;;6131099;23;20063;-81
2023/08/31 05:27:14;;;;;;;49.90;34.63;;;11.00;99.90;;;;;;6105717;23;20005;-80
2023/08/31 05:29:39;;;;;;;62.13;37.97;;;11.00;99.90;;;;;;6104100;23;20136;-80
2023/08/31 05:32:05;;;;;;;28.92;25.98;;;11.00;99.90;;;;;;6104949;23;20010;-80
2023/08/31 05:34:33;;;;;;;45.25;32.22;;;11.10;99.90;;;;;;6130684;23;20005;-81
2023/08/31 05:36:58;;;;;;;52.67;34.67;;;11.00;99.90;;;;;;6100363;23;20009;-80
2023/08/31 05:39:25;;;;;;;40.22;31.15;;;11.20;99.90;;;;;;6129220;23;20327;-79
2023/08/31 05:41:50;;;;;;;58.13;35.63;;;11.20;99.90;;;;;;6129145;23;20025;-79
2023/08/31 05:44:16;;;;;;;48.45;32.20;;;11.20;99.90;;;;;;6128664;23;20342;-80
2023/08/31 05:46:42;;;;;;;45.67;31.50;;;11.30;99.90;;;;;;6104224;23;20014;-80
2023/08/31 05:49:08;;;;;;;42.58;30.45;;;11.30;99.90;;;;;;6104275;23;20016;-79
2023/08/31 05:51:34;;;;;;;55.47;34.03;;;11.30;99.90;;;;;;6128537;23;20020;-79
2023/08/31 05:53:59;;;;;;;33.50;27.63;;;11.40;99.90;;;;;;6103248;23;20014;-80
2023/08/31 05:56:25;;;;;;;50.75;33.42;;;11.40;99.90;;;;;;6127934;23;20045;-79
2023/08/31 05:58:54;;;;;;;56.08;35.35;;;11.50;99.90;;;;;;6128355;23;20020;-81
2023/08/31 06:01:20;;;;;;;80.28;37.53;;;11.50;99.90;;;;;;6127110;23;20450;-79
2023/08/31 06:03:45;;;;;;;31.40;28.05;;;11.50;99.90;;;;;;6127433;23;20020;-79
2023/08/31 06:06:11;;;;;;;29.73;24.75;;;11.60;99.90;;;;;;6127217;23;20512;-78
2023/08/31 06:08:36;;;;;;;27.48;24.60;;;11.60;99.90;;;;;;6128126;23;20473;-80
2023/08/31 06:11:02;;;;;;;23.30;20.90;;;11.70;99.90;;;;;;6128771;23;20508;-78
2023/08/31 06:13:27;;;;;;;39.67;28.73;;;11.80;99.90;;;;;;6127924;23;20016;-83
2023/08/31 06:15:55;;;;;;;26.55;22.67;;;11.90;99.90;;;;;;6127762;23;20029;-78
2023/08/31 06:18:21;;;;;;;46.28;29.02;;;12.00;99.90;;;;;;6127212;23;20025;-77
2023/08/31 06:20:48;;;;;;;39.35;28.23;;;12.10;99.90;;;;;;6126852;23;20014;-78
2023/08/31 06:23:14;;;;;;;37.00;24.27;;;12.20;99.90;;;;;;6128573;23;20013;-77
2023/08/31 06:25:39;;;;;;;25.35;20.60;;;12.20;99.90;;;;;;6127539;23;20013;-77
2023/08/31 06:28:08;;;;;;;31.60;22.35;;;12.30;99.90;;;;;;6128083;23;20041;-78
2023/08/31 06:30:34;;;;;;;20.02;17.80;;;12.30;99.90;;;;;;6128374;23;20013;-77
2023/08/31 06:33:00;;;;;;;23.40;17.60;;;12.40;99.90;;;;;;6102339;23;20042;-77
2023/08/31 06:35:26;;;;;;;14.93;12.57;;;12.50;99.90;;;;;;6103786;23;20029;-78
2023/08/31 06:37:51;;;;;;;19.00;13.85;;;12.50;99.90;;;;;;6103688;23;20053;-77
2023/08/31 06:40:17;;;;;;;19.50;13.98;;;12.50;99.90;;;;;;6128166;23;20067;-77
2023/08/31 06:42:43;;;;;;;14.80;10.65;;;12.50;99.90;;;;;;6127576;23;20072;-78
2023/08/31 06:45:09;;;;;;;17.85;12.75;;;12.60;99.90;;;;;;6103469;23;20009;-77
2023/08/31 06:47:35;;;;;;;16.42;14.20;;;12.60;99.90;;;;;;6127870;23;20009;-77
2023/08/31 06:50:00;;;;;;;16.67;11.07;;;12.70;99.90;;;;;;6128819;23;20471;-77
2023/08/31 06:52:26;;;;;;;13.70;11.15;;;12.80;99.90;;;;;;6127755;23;20048;-77
2023/08/31 06:54:56;;;;;;;14.95;10.18;;;12.90;99.90;;;;;;6127437;23;20024;-77
2023/08/31 06:57:23;;;;;;;15.65;11.80;;;12.90;99.90;;;;;;6126490;23;20018;-77
2023/08/31 06:59:48;;;;;;;19.33;13.55;;;13.00;99.90;;;;;;6127885;23;20350;-78
2023/08/31 07:02:15;;;;;;;13.85;9.07;;;13.10;99.90;;;;;;6128158;23;20009;-78
2023/08/31 07:04:40;;;;;;;10.57;7.43;;;13.10;99.90;;;;;;6127670;23;20010;-77
2023/08/31 07:07:08;;;;;;;11.55;6.88;;;13.20;99.90;;;;;;6102748;23;20009;-77
2023/08/31 07:09:34;;;;;;;14.98;8.25;;;13.20;99.90;;;;;;6128063;23;20342;-77
2023/08/31 07:12:01;;;;;;;11.82;8.18;;;13.10;99.90;;;;;;6128058;23;20089;-77
2023/08/31 07:14:26;;;;;;;10.80;8.18;;;13.10;99.90;;;;;;6103457;23;20067;-77
2023/08/31 07:16:52;;;;;;;12.63;9.40;;;13.10;99.90;;;;;;6127301;23;20009;-77
2023/08/31 07:19:18;;;;;;;10.32;6.38;;;13.10;99.90;;;;;;6127390;23;20084;-77
2023/08/31 07:21:43;;;;;;;8.68;5.30;;;13.20;99.90;;;;;;6127958;23;20514;-77
2023/08/31 07:24:09;;;;;;;7.30;5.22;;;13.20;99.90;;;;;;6127293;23;20016;-77
2023/08/31 07:26:35;;;;;;;9.85;5.53;;;13.30;99.90;;;;;;6102950;23;20005;-77
2023/08/31 07:29:04;;;;;;;8.25;5.30;;;13.40;99.90;;;;;;6127648;23;20013;-77
2023/08/31 07:31:30;;;;;;;8.70;4.95;;;13.50;99.90;;;;;;6128560;23;20017;-77
2023/08/31 07:33:56;;;;;;;8.32;5.53;;;13.50;99.90;;;;;;6128408;23;20104;-77
2023/08/31 07:36:21;;;;;;;7.43;3.75;;;13.60;99.90;;;;;;6130078;23;20049;-78
2023/08/31 07:38:47;;;;;;;6.78;4.25;;;13.60;99.90;;;;;;6105836;23;20013;-78
2023/08/31 07:41:12;;;;;;;5.97;3.30;;;13.60;99.90;;;;;;6130481;23;20109;-78
2023/08/31 07:43:38;;;;;;;8.45;4.53;;;13.70;99.90;;;;;;6105354;23;20442;-78
2023/08/31 07:46:03;;;;;;;8.68;4.70;;;13.80;99.90;;;;;;6105359;23;20013;-77
2023/08/31 07:48:29;;;;;;;7.07;4.70;;;13.90;99.90;;;;;;6129213;23;20382;-78
2023/08/31 07:50:55;;;;;;;7.45;4.07;;;14.00;99.90;;;;;;6130117;23;20350;-77
2023/08/31 07:53:21;;;;;;;9.95;4.82;;;14.10;99.90;;;;;;6129757;23;20035;-78
2023/08/31 07:55:54;;;;;;;9.00;4.03;;;14.30;99.90;;;;;;6129793;23;20020;-78
2023/08/31 07:58:20;;;;;;;6.20;3.38;;;14.50;99.90;;;;;;6105280;23;20024;-78
2023/08/31 08:00:46;;;;;;;8.07;3.60;;;14.60;99.90;;;;;;6104625;23;20013;-78
2023/08/31 08:03:12;;;;;;;5.55;2.47;;;14.70;99.90;;;;;;6129440;23;20017;-78
2023/08/31 08:05:39;;;;;;;3.35;2.53;;;14.90;99.90;;;;;;6105347;23;20374;-78
2023/08/31 08:08:05;;;;;;;4.35;2.65;;;15.00;99.90;;;;;;6129736;23;20089;-78
2023/08/31 08:10:30;;;;;;;5.07;2.00;;;15.10;99.90;;;;;;6129655;23;20055;-78
2023/08/31 08:12:56;;;;;;;4.53;2.10;;;15.20;99.90;;;;;;6130016;23;20092;-78
2023/08/31 08:15:22;;;;;;;3.30;1.65;;;15.20;99.90;;;;;;6129806;23;20009;-77
2023/08/31 08:17:48;;;;;;;4.90;2.40;;;15.10;99.90;;;;;;6129096;23;20140;-77
2023/08/31 08:20:13;;;;;;;4.30;1.88;;;15.00;99.90;;;;;;6128883;23;20085;-77
2023/08/31 08:22:39;;;;;;;5.65;2.05;;;15.00;99.90;;;;;;6128698;23;20454;-77
2023/08/31 08:25:05;;;;;;;5.60;2.50;;;15.10;99.90;;;;;;6128499;23;20450;-77
2023/08/31 08:27:32;;;;;;;6.15;2.50;;;15.30;99.90;;;;;;6129027;23;20084;-78
2023/08/31 08:30:01;;;;;;;6.03;2.38;;;15.40;99.90;;;;;;6129161;23;20079;-77
2023/08/31 08:32:27;;;;;;;6.00;2.38;;;15.60;99.90;;;;;;6104960;23;20024;-78
2023/08/31 08:34:52;;;;;;;9.32;2.05;;;15.90;99.90;;;;;;6128971;23;20014;-78
2023/08/31 08:37:19;;;;;;;6.78;1.98;;;16.40;99.90;;;;;;6129041;23;20014;-78
2023/08/31 08:39:48;;;;;;;3.90;1.55;;;16.90;99.90;;;;;;6104756;23;20017;-78
2023/08/31 08:42:17;;;;;;;2.67;0.90;;;17.20;99.90;;;;;;6129599;23;20005;-78
2023/08/31 08:44:43;;;;;;;6.57;1.10;;;17.30;99.90;;;;;;6128836;23;20005;-77
2023/08/31 08:47:10;;;;;;;2.72;0.88;;;17.30;99.90;;;;;;6128502;23;20069;-78
2023/08/31 08:49:36;;;;;;;3.15;1.00;;;17.40;99.90;;;;;;6129454;23;20422;-78
2023/08/31 08:52:02;;;;;;;6.05;1.40;;;17.70;99.90;;;;;;6129584;23;20458;-78
2023/08/31 08:54:28;;;;;;;6.00;1.48;;;18.10;99.90;;;;;;6129836;23;20010;-78
2023/08/31 08:56:54;;;;;;;4.80;1.70;;;18.20;99.90;;;;;;6128728;23;20010;-78
2023/08/31 08:59:19;;;;;;;5.78;1.65;;;18.50;99.90;;;;;;6104554;23;20009;-77
2023/08/31 09:01:46;;;;;;;3.70;1.23;;;19.00;99.90;;;;;;6129654;23;20020;-77
2023/08/31 09:04:12;;;;;;;3.50;1.25;;;19.50;99.90;;;;;;6129344;23;20005;-78
2023/08/31 09:06:39;;;;;;;2.92;1.25;;;19.90;99.90;;;;;;6128886;23;20013;-78
2023/08/31 09:09:04;;;;;;;5.78;1.60;;;20.30;99.90;;;;;;6128321;23;20009;-78
2023/08/31 09:11:30;;;;;;;4.07;0.90;;;20.60;99.90;;;;;;6129420;23;20013;-78
2023/08/31 09:13:57;;;;;;;4.55;1.00;;;20.80;99.90;;;;;;6129457;23;20017;-77
2023/08/31 09:16:25;;;;;;;5.97;1.17;;;20.90;99.90;;;;;;6129271;23;20049;-78
2023/08/31 09:18:51;;;;;;;4.20;1.10;;;21.10;99.90;;;;;;6128405;23;20021;-78
2023/08/31 09:21:17;;;;;;;2.67;1.10;;;21.20;99.90;;;;;;6104621;23;20068;-78
2023/08/31 09:23:58;;;;;;;3.42;1.10;;;21.30;99.90;;;;;;6129164;23;20010;-78
2023/08/31 09:26:23;;;;;;;3.92;0.90;;;21.30;99.90;;;;;;6105145;23;20009;-78
2023/08/31 09:28:49;;;;;;;3.53;0.93;;;21.40;99.90;;;;;;6128693;23;20020;-78
2023/08/31 09:31:15;;;;;;;2.90;0.90;;;21.50;99.90;;;;;;6129427;23;20020;-78
2023/08/31 09:33:52;;;;;;;3.08;1.08;;;21.50;99.90;;;;;;6128814;23;20017;-78
2023/08/31 09:36:19;;;;;;;4.78;1.15;;;21.60;99.90;;;;;;6104743;23;20020;-78
2023/08/31 09:38:45;;;;;;;3.58;1.13;;;21.70;99.90;;;;;;6128475;23;20013;-78
2023/08/31 09:41:12;;;;;;;6.15;1.25;;;21.60;99.90;;;;;;6128484;23;20349;-78
2023/08/31 09:43:37;;;;;;;2.95;1.10;;;21.60;99.90;;;;;;6104573;23;20009;-78
2023/08/31 09:46:04;;;;;;;3.83;1.00;;;21.80;99.90;;;;;;6129751;23;20324;-78
2023/08/31 09:48:30;;;;;;;2.70;1.27;;;21.60;99.90;;;;;;6104469;23;20010;-78
2023/08/31 09:51:04;;;;;;;4.35;1.20;;;21.20;99.90;;;;;;6129636;23;20041;-78
2023/08/31 09:53:31;;;;;;;3.50;1.50;;;20.90;99.90;;;;;;6129604;23;20021;-78
2023/08/31 09:55:57;;;;;;;2.55;0.98;;;21.00;99.90;;;;;;6128615;23;20096;-78
2023/08/31 09:58:23;;;;;;;3.05;1.30;;;21.20;99.90;;;;;;6128255;23;20020;-78
2023/08/31 10:00:51;;;;;;;6.72;1.88;;;21.40;99.90;;;;;;6104612;23;20024;-78
2023/08/31 10:03:17;;;;;;;4.10;1.50;;;21.10;99.90;;;;;;6130339;23;20013;-78
2023/08/31 10:05:50;;;;;;;5.20;1.52;;;20.40;99.90;;;;;;6129227;23;20017;-78
2023/08/31 10:08:16;;;;;;;4.68;1.33;;;19.80;99.90;;;;;;6128119;23;20022;-79
2023/08/31 10:10:42;;;;;;;5.03;1.30;;;19.10;99.90;;;;;;6128146;23;20013;-80
2023/08/31 10:13:08;;;;;;;11.32;1.98;;;18.50;99.90;;;;;;6103900;23;20064;-79
2023/08/31 10:15:37;;;;;;;4.05;1.52;;;18.00;99.90;;;;;;6129066;23;20308;-79
2023/08/31 10:18:04;;;;;;;3.92;1.10;;;17.40;99.90;;;;;;6104681;23;20035;-78
2023/08/31 10:20:31;;;;;;;3.20;1.10;;;17.00;99.90;;;;;;6104548;23;20010;-78
2023/08/31 10:23:03;;;;;;;5.05;1.30;;;16.80;99.90;;;;;;6128483;23;20454;-78
2023/08/31 10:25:53;;;;;;;3.17;1.48;;;17.00;99.90;;;;;;6128490;23;20087;-78
2023/08/31 10:28:19;;;;;;;3.50;1.45;;;17.60;99.90;;;;;;6128180;23;20014;-77
2023/08/31 10:31:04;;;;;;;5.10;1.45;;;18.10;99.90;;;;;;6128828;23;20041;-78
2023/08/31 10:33:59;;;;;;;5.10;1.50;;;18.80;99.90;;;;;;6104309;23;20020;-78
2023/08/31 10:36:39;;;;;;;4.82;1.30;;;19.20;99.90;;;;;;6129180;23;20017;-78
2023/08/31 10:39:15;;;;;;;3.38;1.20;;;19.30;99.90;;;;;;6128890;23;20350;-78
2023/08/31 10:41:42;;;;;;;7.63;1.38;;;19.30;99.90;;;;;;6128706;23;20018;-78
2023/08/31 10:44:19;;;;;;;4.78;1.10;;;19.50;99.90;;;;;;6128428;23;20009;-78
2023/08/31 10:46:46;;;;;;;3.70;1.10;;;19.80;99.90;;;;;;6127893;23;20010;-78
2023/08/31 10:49:11;;;;;;;5.05;1.10;;;19.80;99.90;;;;;;6128589;23;20386;-78
2023/08/31 10:51:43;;;;;;;3.33;1.20;;;19.80;99.90;;;;;;6128344;23;20025;-78
2023/08/31 10:54:23;;;;;;;4.20;1.13;;;19.90;99.90;;;;;;6127817;23;20062;-77
2023/08/31 10:57:00;;;;;;;4.75;1.33;;;20.30;99.90;;;;;;6128201;23;20017;-78
2023/08/31 10:59:41;;;;;;;2.30;0.90;;;20.60;99.90;;;;;;6128367;23;20470;-78
2023/08/31 11:02:07;;;;;;;4.15;1.25;;;20.70;99.90;;;;;;6127750;23;20397;-78
2023/08/31 11:05:15;;;;;;;4.10;1.20;;;20.70;99.90;;;;;;6103786;23;20045;-78
2023/08/31 11:07:43;;;;;;;5.18;1.60;;;20.30;99.90;;;;;;6108597;23;20009;-78
2023/08/31 11:10:11;;;;;;;3.58;1.10;;;19.80;99.90;;;;;;6103354;23;20119;-78
2023/08/31 11:12:38;;;;;;;3.22;1.05;;;19.30;99.90;;;;;;6127685;23;20021;-77
2023/08/31 11:15:04;;;;;;;4.15;1.33;;;18.80;99.90;;;;;;6128399;23;20341;-79
2023/08/31 11:17:32;;;;;;;6.20;0.82;;;18.40;99.90;;;;;;6127823;23;20346;-77
2023/08/31 11:19:58;;;;;;;3.80;0.90;;;17.90;99.90;;;;;;6128185;23;20025;-78
2023/08/31 11:22:24;;;;;;;8.65;1.52;;;17.20;99.90;;;;;;6129036;23;20025;-80
2023/08/31 11:24:50;;;;;;;2.92;0.95;;;16.30;99.90;;;;;;6133184;23;20014;-80
2023/08/31 11:27:20;;;;;;;2.22;0.70;;;15.50;99.90;;;;;;6133677;23;20014;-79
2023/08/31 11:29:46;;;;;;;2.67;0.85;;;15.00;99.90;;;;;;6130365;23;20009;-79
2023/08/31 11:32:11;;;;;;;3.65;0.68;;;14.60;99.90;;;;;;6105649;23;20020;-80
2023/08/31 11:34:44;;;;;;;30.15;2.88;;;14.40;99.90;;;;;;6129626;23;20006;-79
2023/08/31 11:37:14;;;;;;;;;;;14.40;99.90;;;;;;6104428;23;20009;-80
2023/08/31 11:39:40;;;;;;;6.45;1.00;;;14.40;99.90;;;;;;6128217;23;20358;-79
2023/08/31 11:42:05;;;;;;;5.47;1.27;;;14.60;99.90;;;;;;6127403;23;20036;-79
2023/08/31 11:44:31;;;;;;;3.30;1.00;;;14.80;99.90;;;;;;6127870;23;20005;-79
2023/08/31 11:46:57;;;;;;;6.47;1.40;;;15.20;99.90;;;;;;6127727;23;20016;-79
2023/08/31 11:49:24;;;;;;;3.35;1.10;;;15.90;99.90;;;;;;6127453;23;20017;-79
2023/08/31 11:51:50;;;;;;;3.65;1.10;;;16.60;99.90;;;;;;6102981;23;20021;-79
2023/08/31 11:54:17;;;;;;;3.85;1.40;;;17.40;99.90;;;;;;6127518;23;20017;-79
2023/08/31 11:56:48;;;;;;;2.60;1.45;;;18.10;99.90;;;;;;6127730;23;20020;-78
2023/08/31 11:59:18;;;;;;;3.20;1.20;;;18.80;99.90;;;;;;6127583;23;20045;-78
2023/08/31 12:01:46;;;;;;;4.63;1.20;;;19.40;99.90;;;;;;6127651;23;20013;-78
2023/08/31 12:04:25;;;;;;;3.33;1.23;;;19.50;99.90;;;;;;6126116;23;20522;-78
2023/08/31 12:06:52;;;;;;;5.10;1.48;;;19.60;99.90;;;;;;6125723;23;20085;-78
2023/08/31 12:09:18;;;;;;;5.05;1.40;;;19.70;99.90;;;;;;6127579;23;20009;-78
2023/08/31 12:11:54;;;;;;;4.00;1.20;;;19.80;99.90;;;;;;6128152;23;20009;-78
2023/08/31 12:14:24;;;;;;;4.32;1.25;;;19.40;99.90;;;;;;6128076;23;20014;-79
2023/08/31 12:16:51;;;;;;;4.35;1.00;;;18.70;99.90;;;;;;6128745;23;20025;-79
2023/08/31 12:19:16;;;;;;;8.15;1.40;;;18.10;99.90;;;;;;6129736;23;20018;-80
2023/08/31 12:21:44;;;;;;;39.25;2.90;;;17.30;99.90;;;;;;6131999;23;20009;-81
2023/08/31 12:24:10;;;;;;;4.70;1.00;;;16.70;99.90;;;;;;6131251;23;20084;-78
2023/08/31 12:26:50;;;;;;;9.45;1.60;;;16.00;99.90;;;;;;6147470;23;20411;-78
2023/08/31 12:29:16;;;;;;;3.58;1.08;;;15.70;99.90;;;;;;6153642;23;20346;-79
2023/08/31 12:31:43;;;;;;;7.97;1.65;;;15.30;99.90;;;;;;6153856;23;20541;-78
2023/08/31 12:34:09;;;;;;;13.23;2.65;;;15.20;99.90;;;;;;6152959;23;20013;-78
2023/08/31 12:36:37;;;;;;;6.50;1.08;;;15.10;99.90;;;;;;6153566;23;20433;-78